• Join FlightAware (Why Join?)
  • Login
  • US Flag 
11:19PM EDT


 

Airport Tracker/Info


-or-


 

Live Flight TrackerFlight Track Log ✈ UPS106 ✈ 30-Aug-2013 ✈ KBDL - KEWR

Flight Track Log - Related Links

Times and Time Zones

All times are in EDT time to prevent confusion due to time zone crossing. See the UPS106 flight status page for this flight to view local times or setup timezone preferences in your user account.

Time Position Orientation Groundspeed Altitude Reporting Facility
EDT Latitude Longitude Course Direction KTS MPH feet Rate Location/Type
08:05PM 41.9260 -72.8740 267° West 270 311 9,400  Level FlightAware
08:05PM 41.9230 -72.9390 266° West 300 345 11,800 3,660 Climbing FlightAware
08:06PM 41.9210 -73.0060 268° West 342 394 13,700 2,040 Climbing FlightAware
08:06PM 41.9080 -73.0740 256° West 346 398 14,100 300 Climbing FlightAware
08:07PM 41.8870 -73.1460 249° West 351 404 14,100  Level FlightAware
08:08PM 41.8660 -73.2200 249° West 350 403 14,100 -120 Level FlightAware
08:08PM 41.8470 -73.2890 250° West 318 366 14,000  Descending FlightAware
08:09PM 41.8300 -73.3490 249° West 287 330 14,100 60 Climbing FlightAware
08:09PM 41.8100 -73.4090 246° West 289 333 14,100  Level FlightAware
08:10PM 41.7890 -73.4550 239° Southwest 288 331 14,100  Level FlightAware
08:11PM 41.7600 -73.5130 236° Southwest 291 335 14,100  Level FlightAware
08:11PM 41.7390 -73.5550 236° Southwest 289 333 14,100  Level FlightAware
08:12PM 41.7100 -73.6130 236° Southwest 287 330 14,100  Level FlightAware
08:12PM 41.6830 -73.6660 236° Southwest 288 331 14,100  Level FlightAware
08:13PM 41.6550 -73.7220 236° Southwest 289 333 14,100 -120 Level FlightAware
08:13PM 41.6320 -73.7690 237° Southwest 289 333 14,000 -780 Descending FlightAware
08:14PM 41.6050 -73.8230 236° Southwest 287 330 13,200 -1,620 Descending FlightAware
08:15PM 41.5780 -73.8750 235° Southwest 290 334 12,100 -1,800 Descending FlightAware
08:15PM 41.5530 -73.9240 236° Southwest 290 334 11,200 -1,680 Descending FlightAware
08:16PM 41.5270 -73.9770 237° Southwest 287 330 10,200 -1,260 Descending FlightAware
08:16PM 41.5110 -74.0080 235° Southwest 272 313 10,000 -960 Descending FlightAware
08:16PM 41.5030 -74.0240 236° Southwest 272 313 9,700 -1,560 Descending FlightAware
08:17PM 41.4860 -74.0570 235° Southwest 270 311 9,100 -1,620 Descending FlightAware
08:17PM 41.4770 -74.0760 238° Southwest 270 311 8,700 -1,680 Descending FlightAware
08:17PM 41.4630 -74.1020 234° Southwest 269 310 8,200 -1,500 Descending FlightAware
08:18PM 41.4520 -74.1250 237° Southwest 267 307 7,800 -1,380 Descending FlightAware
08:18PM 41.4400 -74.1490 236° Southwest 266 306 7,400 -1,320 Descending FlightAware
08:18PM 41.4300 -74.1680 235° Southwest 263 303 7,100 -720 Descending FlightAware
08:18PM 41.4150 -74.1970 235° Southwest 263 303 7,000  Descending FlightAware
08:19PM 41.4010 -74.2240 235° Southwest 266 306 7,100 120 Climbing FlightAware
08:19PM 41.3880 -74.2480 234° Southwest 269 310 7,100 -360 Level FlightAware
08:19PM 41.3670 -74.2640 210° Southwest 270 311 6,900 -480 Descending FlightAware
08:20PM 41.3430 -74.2780 204° Southwest 264 304 6,800 -480 Descending FlightAware
08:20PM 41.3200 -74.2910 203° Southwest 263 303 6,600 -600 Descending FlightAware
08:20PM 41.2970 -74.3050 205° Southwest 261 300 6,400 -540 Descending FlightAware
08:21PM 41.2820 -74.3140 204° Southwest 262 302 6,300 -540 Descending FlightAware
08:21PM 41.2580 -74.3280 204° Southwest 262 302 6,100 -540 Descending FlightAware
08:21PM 41.2410 -74.3380 204° Southwest 254 292 6,000 -300 Descending FlightAware
08:21PM 41.2370 -74.3390 191° South 252 290 6,000 540 Level FlightAware
08:21PM 41.2280 -74.3400 185° South 249 287 6,100 180 Climbing FlightAware
08:22PM 41.2040 -74.3330 168° South 268 308 6,100  Level FlightAware
08:22PM 41.1900 -74.3230 152° Southeast 284 327 6,100 -240 Level FlightAware
08:22PM 41.1720 -74.3090 150° Southeast 288 331 6,000 -600 Descending FlightAware
08:23PM 41.1420 -74.2860 150° Southeast 284 327 5,700 -600 Descending FlightAware
08:23PM 41.1220 -74.2700 149° Southeast 286 329 5,600 -600 Descending FlightAware
08:23PM 41.0910 -74.2460 150° Southeast 285 328 5,300 -660 Descending FlightAware
08:24PM 41.0630 -74.2250 151° Southeast 268 308 5,100 -960 Descending FlightAware
08:24PM 41.0420 -74.2090 150° Southeast 270 311 4,600 -1,440 Descending FlightAware
08:25PM 41.0190 -74.1910 149° Southeast 267 307 4,100 -840 Descending FlightAware
08:25PM 40.9960 -74.1740 151° Southeast 249 287 4,000  Descending FlightAware
08:25PM 40.9840 -74.1650 150° Southeast 235 270 4,100 180 Climbing FlightAware
08:25PM 40.9660 -74.1510 150° Southeast 220 253 4,100  Level FlightAware
08:26PM 40.9490 -74.1380 150° Southeast 219 252 4,100 -480 Level FlightAware
08:26PM 40.9320 -74.1250 150° Southeast 224 258 3,800 -1,380 Descending FlightAware
08:26PM 40.9150 -74.1120 150° Southeast 244 281 3,300 -1,140 Descending FlightAware
08:27PM 40.8960 -74.0980 151° Southeast 237 273 3,100 -300 Descending FlightAware
08:27PM 40.8740 -74.0850 156° South 212 244 3,100  Level FlightAware
08:28PM 40.8550 -74.0830 175° South 209 241 3,100  Level FlightAware
08:28PM 40.8363 -74.0797 172° South 191 220 3,100  Level FlightAware ADS-B
08:28PM 40.8327 -74.0793 175° South 188 216 3,100  Level FlightAware ADS-B
08:28PM 40.8301 -74.0794 182° South 186 214 3,100  Level FlightAware ADS-B
08:28PM 40.8268 -74.0801 189° South 184 212 3,100  Level FlightAware ADS-B
08:28PM 40.8221 -74.0821 198° South 188 216 3,100 -1,020 Level FlightAware ADS-B
08:28PM 40.8170 -74.0848 202° Southwest 197 227 2,900 -1,200 Descending FlightAware ADS-B
08:29PM 40.7959 -74.0981 206° Southwest 201 231 2,500 -900 Descending FlightAware ADS-B
08:29PM 40.7883 -74.1034 208° Southwest 192 221 2,400 -960 Descending FlightAware ADS-B
08:29PM 40.7769 -74.1115 208° Southwest 187 215 2,100 -1,080 Descending FlightAware ADS-B
08:29PM 40.7666 -74.1185 207° Southwest 171 197 1,900 -1,320 Descending FlightAware ADS-B
08:29PM 40.7568 -74.1241 203° Southwest 163 188 1,500 -1,620 Descending FlightAware ADS-B
08:30PM 40.7505 -74.1275 202° Southwest 161 185 1,300 -660 Descending FlightAware ADS-B
08:30PM 40.7440 -74.1314 204° Southwest 142 163 1,300 -780 Level FlightAware ADS-B
08:30PM 40.7292 -74.1414 207° Southwest 129 148 800 -840 Descending FlightAware ADS-B
08:31PM 40.7100 -74.1530 205° Southwest 118 136 400 -600 Descending FlightAware
08:31PM 40.7010 -74.1600 211° Southwest 120 138 200 -600 Descending FlightAware
08:32PM 40.6920 -74.1650 203° Southwest 105 121 -600 Descending FlightAware
08:32PM 40.6830 -74.1720 211° Southwest 105 121  Level FlightAware
08:39PM 40.6925 -74.1687 15° North  Level Estimated
08:40PM 40.6925 -74.1687 90° East  Level Estimated